createdAt,value
2018-02-23T00:02:17.821Z,100782.25
2018-02-23T00:04:46.909Z,100785.80
2018-02-23T00:07:16.017Z,100777.40
2018-02-23T00:09:45.122Z,100790.92
2018-02-23T00:12:14.210Z,100780.43
2018-02-23T00:14:43.317Z,100780.82
2018-02-23T00:17:12.402Z,100775.95
2018-02-23T00:19:41.535Z,100777.52
2018-02-23T00:22:10.680Z,100777.95
2018-02-23T00:24:39.746Z,100769.37
2018-02-23T00:27:08.908Z,100775.41
2018-02-23T00:29:37.950Z,100771.84
2018-02-23T00:32:07.053Z,100772.39
2018-02-23T00:34:36.142Z,100771.06
2018-02-23T00:37:05.239Z,100772.36
2018-02-23T00:39:34.357Z,100776.78
2018-02-23T00:42:03.473Z,100780.52
2018-02-23T00:44:32.558Z,100782.21
2018-02-23T00:47:01.666Z,100782.16
2018-02-23T00:49:30.752Z,100781.82
2018-02-23T00:51:59.857Z,100789.86
2018-02-23T00:54:28.954Z,100783.43
2018-02-23T00:56:59.129Z,100779.78
2018-02-23T00:59:28.229Z,100782.48
2018-02-23T01:01:57.317Z,100773.17
2018-02-23T01:04:26.426Z,100777.27
2018-02-23T01:06:55.521Z,100779.61
2018-02-23T01:09:24.626Z,100772.94
2018-02-23T01:11:53.715Z,100765.53
2018-02-23T01:14:22.786Z,100773.56
2018-02-23T01:16:51.887Z,100763.66
2018-02-23T01:19:20.990Z,100759.08
2018-02-23T01:21:50.081Z,100765.98
2018-02-23T01:24:19.196Z,100760.83
2018-02-23T01:26:48.324Z,100765.64
2018-02-23T01:29:17.414Z,100769.44
2018-02-23T01:31:46.498Z,100771.13
2018-02-23T01:34:15.643Z,100755.41
2018-02-23T01:36:45.489Z,100752.28
2018-02-23T01:39:14.609Z,100763.66
2018-02-23T01:41:43.697Z,100752.73
2018-02-23T01:44:12.811Z,100750.67
2018-02-23T01:46:41.886Z,100750.09
2018-02-23T01:49:10.998Z,100740.66
2018-02-23T01:51:41.071Z,100737.63
2018-02-23T01:54:10.219Z,100741.72
2018-02-23T01:56:39.297Z,100742.48
2018-02-23T01:59:08.521Z,100739.05
2018-02-23T02:01:37.610Z,100734.86
2018-02-23T02:04:06.716Z,100741.44
2018-02-23T02:06:35.809Z,100738.98
2018-02-23T02:09:04.939Z,100740.28
2018-02-23T02:11:34.925Z,100739.69
2018-02-23T02:14:04.039Z,100727.92
2018-02-23T02:16:33.934Z,100735.13
2018-02-23T02:19:03.078Z,100731.31
2018-02-23T02:21:32.174Z,100720.97
2018-02-23T02:24:02.274Z,100726.62
2018-02-23T02:26:32.125Z,100725.53
2018-02-23T02:29:01.208Z,100724.38
2018-02-23T02:31:30.318Z,100718.86
2018-02-23T02:33:59.408Z,100715.19
2018-02-23T02:36:28.513Z,100718.38
2018-02-23T02:38:57.591Z,100725.09
2018-02-23T02:41:26.694Z,100719.43
2018-02-23T02:43:55.781Z,100727.41
2018-02-23T02:46:24.887Z,100716.15
2018-02-23T02:48:53.986Z,100714.99
2018-02-23T02:51:23.114Z,100713.86
2018-02-23T02:53:52.233Z,100711.69
2018-02-23T02:56:22.097Z,100721.69
2018-02-23T02:58:51.206Z,100722.05
2018-02-23T03:01:20.288Z,100719.94
2018-02-23T03:03:49.373Z,100719.02
2018-02-23T03:06:18.483Z,100714.87
2018-02-23T03:08:47.586Z,100719.50
2018-02-23T03:11:16.674Z,100726.48
2018-02-23T03:13:45.761Z,100714.52
2018-02-23T03:16:16.008Z,100712.80
2018-02-23T03:18:45.114Z,100715.98
2018-02-23T03:21:14.207Z,100714.61
2018-02-23T03:23:43.307Z,100712.68
2018-02-23T03:26:12.427Z,100713.50
2018-02-23T03:28:42.284Z,100713.12
2018-02-23T03:31:11.408Z,100720.52
2018-02-23T03:33:40.502Z,100719.05
2018-02-23T03:36:09.599Z,100715.09
2018-02-23T03:38:38.726Z,100710.80
2018-02-23T03:41:08.598Z,100715.18
2018-02-23T03:43:38.480Z,100720.68
2018-02-23T03:46:07.573Z,100715.18
2018-02-23T03:48:36.678Z,100717.24
2018-02-23T03:51:05.762Z,100712.98
2018-02-23T03:53:34.883Z,100725.05
2018-02-23T03:56:03.958Z,100728.39
2018-02-23T03:58:36.078Z,100727.59
2018-02-23T04:01:05.166Z,100729.77
2018-02-23T04:03:34.274Z,100730.88
2018-02-23T04:06:03.378Z,100726.06
2018-02-23T04:08:33.236Z,100730.78
2018-02-23T04:11:02.357Z,100736.31
2018-02-23T04:13:31.470Z,100738.66
2018-02-23T04:16:02.074Z,100733.13
2018-02-23T04:18:31.206Z,100736.60
2018-02-23T04:21:00.311Z,100736.52
2018-02-23T04:23:30.178Z,100733.77
2018-02-23T04:25:59.285Z,100734.88
2018-02-23T04:28:28.401Z,100729.77
2018-02-23T04:30:57.515Z,100735.48
2018-02-23T04:33:27.390Z,100738.19
2018-02-23T04:35:56.501Z,100737.21
2018-02-23T04:38:25.610Z,100733.45
2018-02-23T04:40:55.503Z,100738.87
2018-02-23T04:43:24.615Z,100734.61
2018-02-23T04:45:53.752Z,100733.28
2018-02-23T04:48:22.845Z,100728.27
2018-02-23T04:50:52.720Z,100736.05
2018-02-23T04:53:21.805Z,100734.85
2018-02-23T04:55:50.916Z,100730.52
2018-02-23T04:58:20.019Z,100734.01
2018-02-23T05:00:49.112Z,100729.03
2018-02-23T05:03:18.238Z,100737.24
2018-02-23T05:05:47.333Z,100736.06
2018-02-23T05:08:16.491Z,100747.80
2018-02-23T05:10:45.583Z,100744.64
2018-02-23T05:13:14.694Z,100746.30
2018-02-23T05:15:43.782Z,100739.33
2018-02-23T05:18:12.905Z,100743.22
2018-02-23T05:20:42.767Z,100746.11
2018-02-23T05:23:11.888Z,100748.87
2018-02-23T05:25:40.994Z,100750.03
2018-02-23T05:28:10.109Z,100753.19
2018-02-23T05:30:40.124Z,100746.98
2018-02-23T05:33:10.998Z,100741.45
2018-02-23T05:35:40.199Z,100735.84
2018-02-23T05:38:09.364Z,100745.73
2018-02-23T05:40:39.294Z,100743.38
2018-02-23T05:43:08.413Z,100744.22
2018-02-23T05:45:37.632Z,100742.50
2018-02-23T05:48:06.764Z,100746.91
2018-02-23T05:50:36.667Z,100751.34
2018-02-23T05:53:05.801Z,100748.45
2018-02-23T05:55:34.906Z,100751.87
2018-02-23T05:58:04.825Z,100759.17
2018-02-23T06:00:33.938Z,100751.00
2018-02-23T06:03:03.051Z,100761.03
2018-02-23T06:05:32.226Z,100758.98
2018-02-23T06:08:01.339Z,100756.83
2018-02-23T06:10:30.453Z,100747.91
2018-02-23T06:13:00.330Z,100755.20
2018-02-23T06:15:34.966Z,100756.16
2018-02-23T06:18:07.991Z,100766.11
2018-02-23T06:20:37.887Z,100769.47
2018-02-23T06:23:06.981Z,100774.05
2018-02-23T06:25:36.106Z,100772.87
2018-02-23T06:28:05.978Z,100772.33
2018-02-23T06:30:35.084Z,100774.50
2018-02-23T06:33:04.195Z,100769.28
2018-02-23T06:35:33.313Z,100779.13
2018-02-23T06:38:03.189Z,100775.97
2018-02-23T06:40:32.309Z,100780.05
2018-02-23T06:43:02.204Z,100779.13
2018-02-23T06:45:31.292Z,100777.44
2018-02-23T06:48:00.417Z,100776.59
2018-02-23T06:50:30.276Z,100781.14
2018-02-23T06:52:59.403Z,100781.42
2018-02-23T06:55:28.506Z,100784.41
2018-02-23T06:57:57.626Z,100772.83
2018-02-23T07:00:27.495Z,100774.30
2018-02-23T07:02:56.622Z,100781.34
2018-02-23T07:05:25.732Z,100785.28
2018-02-23T07:07:54.840Z,100789.79
2018-02-23T07:10:24.706Z,100794.94
2018-02-23T07:12:53.846Z,100800.17
2018-02-23T07:15:23.704Z,100792.28
2018-02-23T07:17:52.826Z,100802.06
2018-02-23T07:20:21.929Z,100802.30
2018-02-23T07:22:51.064Z,100795.78
2018-02-23T07:25:20.153Z,100790.17
2018-02-23T07:27:49.275Z,100796.63
2018-02-23T07:30:18.374Z,100801.84
2018-02-23T07:32:47.472Z,100793.88
2018-02-23T07:35:16.588Z,100798.77
2018-02-23T07:37:45.711Z,100803.59
2018-02-23T07:40:14.810Z,100807.80
2018-02-23T07:42:44.690Z,100803.77
2018-02-23T07:45:14.369Z,100808.80
2018-02-23T07:47:43.492Z,100806.77
2018-02-23T07:50:12.586Z,100801.46
2018-02-23T07:52:41.692Z,100803.33
2018-02-23T07:55:10.830Z,100812.36
2018-02-23T07:57:40.713Z,100817.76
2018-02-23T08:00:09.831Z,100815.78
2018-02-23T08:02:39.710Z,100818.44
2018-02-23T08:05:08.807Z,100814.84
2018-02-23T08:07:37.898Z,100817.28
2018-02-23T08:10:07.013Z,100822.31
2018-02-23T08:12:36.118Z,100816.36
2018-02-23T08:15:05.255Z,100818.58
2018-02-23T08:17:34.369Z,100815.12
2018-02-23T08:20:03.490Z,100821.59
2018-02-23T08:22:32.586Z,100820.59
2018-02-23T08:25:01.699Z,100818.91
2018-02-23T08:27:30.802Z,100824.95
2018-02-23T08:30:00.683Z,100821.09
2018-02-23T08:35:02.050Z,100820.45
2018-02-23T08:37:31.145Z,100823.31
2018-02-23T08:40:00.298Z,100826.94
2018-02-23T08:42:30.118Z,100825.89
2018-02-23T08:44:59.235Z,100829.31
2018-02-23T08:47:28.330Z,100821.45
2018-02-23T08:49:57.416Z,100825.63
2018-02-23T08:52:26.603Z,100820.73
2018-02-23T08:54:56.459Z,100826.80
2018-02-23T08:57:25.557Z,100825.19
2018-02-23T08:59:56.148Z,100815.66
2018-02-23T09:02:25.277Z,100819.72
2018-02-23T09:04:54.364Z,100820.02
2018-02-23T09:07:23.488Z,100813.91
2018-02-23T09:09:52.594Z,100807.27
2018-02-23T09:12:21.732Z,100813.77
2018-02-23T09:14:50.853Z,100817.40
2018-02-23T09:17:19.953Z,100824.28
2018-02-23T09:19:49.052Z,100827.91
2018-02-23T09:22:18.165Z,100835.30
2018-02-23T09:24:47.247Z,100827.08
2018-02-23T09:27:16.380Z,100832.48
2018-02-23T09:29:46.267Z,100834.67
2018-02-23T09:45:45.355Z,100821.59
2018-02-23T09:48:14.451Z,100817.25
2018-02-23T09:50:43.592Z,100827.29
2018-02-23T09:53:13.458Z,100825.56
2018-02-23T09:55:42.558Z,100824.45
2018-02-23T09:58:11.679Z,100817.48
2018-02-23T10:00:41.529Z,100816.30
2018-02-23T10:03:10.692Z,100815.38
2018-02-23T10:05:40.589Z,100830.55
2018-02-23T10:08:09.711Z,100823.37
2018-02-23T10:10:39.579Z,100822.59
2018-02-23T10:13:08.674Z,100815.95
2018-02-23T10:15:38.563Z,100820.09
2018-02-23T10:18:07.673Z,100824.86
2018-02-23T10:20:36.761Z,100826.59
2018-02-23T10:23:05.903Z,100822.80
2018-02-23T10:25:34.966Z,100825.92
2018-02-23T10:28:04.055Z,100816.61
2018-02-23T10:30:33.166Z,100823.44
2018-02-23T10:33:02.268Z,100818.22
2018-02-23T10:35:31.366Z,100825.96
2018-02-23T10:38:00.466Z,100830.30
2018-02-23T10:40:29.587Z,100826.17
2018-02-23T10:42:59.460Z,100826.39
2018-02-23T10:45:28.608Z,100831.42
2018-02-23T10:47:57.706Z,100829.12
2018-02-23T10:50:26.843Z,100822.20
2018-02-23T10:52:55.926Z,100823.98
2018-02-23T10:55:25.031Z,100825.08
2018-02-23T10:57:54.191Z,100823.80
2018-02-23T11:00:24.037Z,100812.09
2018-02-23T11:02:53.163Z,100817.13
2018-02-23T11:05:22.269Z,100804.83
2018-02-23T11:07:51.381Z,100804.66
2018-02-23T11:10:21.243Z,100812.26
2018-02-23T11:12:50.349Z,100800.92
2018-02-23T11:15:19.452Z,100802.89
2018-02-23T11:17:48.556Z,100811.88
2018-02-23T11:20:17.641Z,100815.21
2018-02-23T11:22:46.750Z,100805.13
2018-02-23T11:25:15.865Z,100792.87
2018-02-23T11:27:44.959Z,100801.62
2018-02-23T11:30:14.822Z,100798.59
2018-02-23T11:32:43.960Z,100796.20
2018-02-23T11:35:13.067Z,100793.66
2018-02-23T11:37:42.151Z,100790.29
2018-02-23T11:40:11.257Z,100787.73
2018-02-23T11:42:41.122Z,100788.12
2018-02-23T11:45:10.211Z,100771.90
2018-02-23T11:47:39.326Z,100767.75
2018-02-23T11:50:08.422Z,100761.00
2018-02-23T11:52:37.523Z,100752.25
2018-02-23T11:55:06.623Z,100758.71
2018-02-23T11:57:41.170Z,100754.69
2018-02-23T12:00:10.287Z,100752.16
2018-02-23T12:02:40.145Z,100760.56
2018-02-23T12:05:09.250Z,100751.87
2018-02-23T12:07:38.370Z,100755.92
2018-02-23T12:10:07.487Z,100755.48
2018-02-23T12:12:37.366Z,100761.27
2018-02-23T12:15:06.472Z,100756.27
2018-02-23T12:17:35.585Z,100747.33
2018-02-23T12:20:04.690Z,100747.49
2018-02-23T12:22:33.802Z,100752.32
2018-02-23T12:25:02.919Z,100744.33
2018-02-23T12:27:32.019Z,100747.29
2018-02-23T12:30:01.140Z,100736.64
2018-02-23T12:32:30.259Z,100736.06
2018-02-23T12:35:00.136Z,100735.59
2018-02-23T12:37:29.244Z,100720.52
2018-02-23T12:39:58.355Z,100719.93
2018-02-23T12:42:27.467Z,100714.30
2018-02-23T12:44:56.598Z,100707.92
2018-02-23T12:47:25.698Z,100702.38
2018-02-23T12:49:55.536Z,100696.91
2018-02-23T12:52:24.635Z,100700.92
2018-02-23T12:54:53.766Z,100694.09
2018-02-23T12:57:23.653Z,100693.41
2018-02-23T12:59:52.759Z,100697.14
2018-02-23T13:02:21.884Z,100693.20
2018-02-23T13:04:51.007Z,100693.67
2018-02-23T13:07:20.092Z,100699.73
2018-02-23T13:09:49.194Z,100700.59
2018-02-23T13:12:18.316Z,100695.83
2018-02-23T13:14:52.828Z,100698.00
2018-02-23T13:17:21.951Z,100685.17
2018-02-23T13:19:51.063Z,100686.02
2018-02-23T13:22:20.952Z,100689.20
2018-02-23T13:24:50.071Z,100694.08
2018-02-23T13:27:20.949Z,100696.69
2018-02-23T13:29:50.090Z,100692.77
2018-02-23T13:32:19.955Z,100685.79
2018-02-23T13:34:49.057Z,100686.30
2018-02-23T13:37:18.158Z,100680.13
2018-02-23T13:39:52.669Z,100679.23
2018-02-23T13:42:23.595Z,100679.16
2018-02-23T13:44:52.716Z,100671.05
2018-02-23T13:47:21.843Z,100669.38
2018-02-23T13:49:50.967Z,100657.70
2018-02-23T13:52:20.063Z,100658.17
2018-02-23T13:54:53.618Z,100662.62
2018-02-23T13:57:22.723Z,100669.61
2018-02-23T13:59:51.836Z,100663.51
2018-02-23T14:02:20.943Z,100667.73
2018-02-23T14:04:50.052Z,100661.47
2018-02-23T14:07:39.724Z,100667.91
2018-02-23T14:10:09.620Z,100673.41
2018-02-23T14:12:38.728Z,100675.39
2018-02-23T14:15:07.846Z,100670.11
2018-02-23T14:17:37.734Z,100680.58
2018-02-23T14:20:08.358Z,100672.72
2018-02-23T14:22:37.484Z,100670.27
2018-02-23T14:25:07.390Z,100665.00
2018-02-23T14:27:37.264Z,100659.36
2018-02-23T14:30:06.372Z,100654.00
2018-02-23T14:32:35.489Z,100660.03
2018-02-23T14:35:04.601Z,100657.76
2018-02-23T14:37:34.481Z,100656.23
2018-02-23T14:40:03.621Z,100649.75
2018-02-23T14:42:32.732Z,100654.26
2018-02-23T14:45:01.855Z,100657.79
2018-02-23T14:47:30.950Z,100658.22
2018-02-23T14:50:17.701Z,100658.90
2018-02-23T14:52:47.570Z,100649.14
2018-02-23T14:55:16.682Z,100645.48
2018-02-23T14:57:45.806Z,100641.78
2018-02-23T15:00:14.923Z,100647.89
2018-02-23T15:02:44.808Z,100638.40
2018-02-23T15:05:13.925Z,100636.70
2018-02-23T15:07:43.036Z,100629.59
2018-02-23T15:10:12.150Z,100621.40
2018-02-23T15:12:41.301Z,100623.83
2018-02-23T15:15:11.186Z,100632.16
2018-02-23T15:17:41.129Z,100643.07
2018-02-23T15:20:10.182Z,100646.08
2018-02-23T15:22:39.292Z,100651.14
2018-02-23T15:25:08.426Z,100642.56
2018-02-23T15:27:37.540Z,100649.52
2018-02-23T15:30:06.662Z,100646.61
2018-02-23T15:32:40.977Z,100651.10
2018-02-23T15:35:10.078Z,100643.19
2018-02-23T15:37:39.214Z,100644.91
2018-02-23T15:40:08.313Z,100641.33
2018-02-23T15:42:37.405Z,100636.80
2018-02-23T15:45:08.048Z,100639.82
2018-02-23T15:47:37.161Z,100645.92
2018-02-23T15:50:12.493Z,100642.63
2018-02-23T15:52:42.364Z,100637.99
2018-02-23T15:55:11.493Z,100666.41
2018-02-23T15:57:44.635Z,100660.94
2018-02-23T16:00:13.785Z,100657.14
2018-02-23T16:02:42.920Z,100662.53
2018-02-23T16:05:12.011Z,100663.03
2018-02-23T16:07:41.118Z,100663.38
2018-02-23T16:10:10.262Z,100663.02
2018-02-23T16:12:39.380Z,100667.77
2018-02-23T16:15:09.262Z,100661.30
2018-02-23T16:17:38.367Z,100663.04
2018-02-23T16:20:07.495Z,100667.90
2018-02-23T16:22:36.610Z,100665.91
2018-02-23T16:25:05.747Z,100674.05
2018-02-23T16:27:34.838Z,100676.95
2018-02-23T16:30:03.942Z,100675.88
2018-02-23T16:32:33.070Z,100676.34
2018-02-23T16:35:02.197Z,100668.94
2018-02-23T16:37:31.328Z,100668.45
2018-02-23T16:40:00.454Z,100666.19
2018-02-23T16:42:30.327Z,100674.72
2018-02-23T16:45:00.196Z,100674.58
2018-02-23T16:47:29.351Z,100672.49
2018-02-23T16:49:58.455Z,100676.92
2018-02-23T16:52:27.567Z,100683.06
2018-02-23T16:54:57.462Z,100688.36
2018-02-23T16:57:26.581Z,100698.86
2018-02-23T16:59:56.456Z,100692.36
2018-02-23T17:02:25.553Z,100698.33
2018-02-23T17:04:55.611Z,100686.66
2018-02-23T17:07:25.503Z,100692.50
2018-02-23T17:09:54.628Z,100695.09
2018-02-23T17:12:24.538Z,100702.78
2018-02-23T17:14:54.431Z,100702.95
2018-02-23T17:17:23.532Z,100716.25
2018-02-23T17:19:52.637Z,100715.20
2018-02-23T17:22:22.502Z,100715.73
2018-02-23T17:24:51.615Z,100718.92
2018-02-23T17:27:20.736Z,100725.34
2018-02-23T17:29:49.870Z,100730.30
2018-02-23T17:32:19.791Z,100731.47
2018-02-23T17:34:48.935Z,100736.41
2018-02-23T17:37:18.861Z,100739.06
2018-02-23T17:39:48.732Z,100740.48
2018-02-23T17:42:17.860Z,100743.13
2018-02-23T17:44:46.993Z,100739.87
2018-02-23T17:47:16.867Z,100746.34
2018-02-23T17:49:45.971Z,100739.70
2018-02-23T17:52:15.124Z,100740.12
2018-02-23T17:54:44.220Z,100739.87
2018-02-23T17:57:13.349Z,100744.34
2018-02-23T17:59:43.950Z,100739.34
2018-02-23T18:02:13.075Z,100755.45
2018-02-23T18:04:42.197Z,100745.36
2018-02-23T18:07:11.309Z,100744.55
2018-02-23T18:09:40.434Z,100741.59
2018-02-23T18:12:09.558Z,100736.65
2018-02-23T18:14:38.693Z,100727.49
2018-02-23T18:17:08.575Z,100736.13
2018-02-23T18:19:37.695Z,100736.85
2018-02-23T18:22:07.581Z,100737.35
2018-02-23T18:24:36.730Z,100745.53
2018-02-23T18:27:05.831Z,100748.50
2018-02-23T18:29:34.923Z,100749.48
2018-02-23T18:32:04.053Z,100749.76
2018-02-23T18:34:33.151Z,100755.41
2018-02-23T18:37:02.288Z,100744.81
2018-02-23T18:39:32.189Z,100741.84
2018-02-23T18:42:01.363Z,100745.02
2018-02-23T18:44:30.422Z,100730.75
2018-02-23T18:46:59.535Z,100729.58
2018-02-23T18:49:28.619Z,100731.87
2018-02-23T18:51:57.728Z,100732.23
2018-02-23T18:54:27.615Z,100735.47
2018-02-23T18:56:56.912Z,100729.77
2018-02-23T18:59:26.038Z,100726.34
2018-02-23T19:01:55.819Z,100739.39
2018-02-23T19:04:24.919Z,100734.73
2018-02-23T19:06:54.034Z,100740.46
2018-02-23T19:09:23.918Z,100751.25
2018-02-23T19:11:53.062Z,100744.16
2018-02-23T19:14:22.187Z,100742.36
2018-02-23T19:16:51.294Z,100740.33
2018-02-23T19:19:20.427Z,100737.88
2018-02-23T19:21:49.542Z,100733.42
2018-02-23T19:24:18.699Z,100727.67
2018-02-23T19:26:48.575Z,100730.32
2018-02-23T19:29:19.201Z,100728.52
2018-02-23T19:31:48.325Z,100733.97
2018-02-23T19:34:18.218Z,100731.43
2018-02-23T19:36:47.344Z,100733.69
2018-02-23T19:39:16.477Z,100742.08
2018-02-23T19:41:45.639Z,100735.30
2018-02-23T19:44:14.742Z,100736.27
2018-02-23T19:46:44.632Z,100732.98
2018-02-23T19:49:14.997Z,100733.09
2018-02-23T19:51:44.855Z,100725.70
2018-02-23T19:54:14.001Z,100733.58
2018-02-23T19:56:43.896Z,100737.02
2018-02-23T19:59:13.000Z,100738.28
2018-02-23T20:01:42.871Z,100737.25
2018-02-23T20:04:12.748Z,100746.06
2018-02-23T20:06:41.934Z,100750.79
2018-02-23T20:09:11.805Z,100744.58
2018-02-23T20:11:40.936Z,100749.13
2018-02-23T20:14:10.831Z,100748.79
2018-02-23T20:16:39.931Z,100752.17
2018-02-23T20:19:09.070Z,100754.08
2018-02-23T20:21:38.190Z,100754.91
2018-02-23T20:24:07.329Z,100758.80
2018-02-23T20:26:36.463Z,100763.66
2018-02-23T20:29:05.584Z,100759.84
2018-02-23T20:31:34.705Z,100761.08
2018-02-23T20:34:03.815Z,100763.39
2018-02-23T20:49:20.937Z,100775.14
2018-02-23T20:51:51.550Z,100772.55
2018-02-23T20:54:21.446Z,100778.98
2018-02-23T20:56:50.574Z,100777.47
2018-02-23T20:59:20.467Z,100781.51
2018-02-23T21:01:50.371Z,100775.47
2018-02-23T21:04:19.493Z,100776.10
2018-02-23T21:06:49.348Z,100771.41
2018-02-23T21:09:18.796Z,100770.86
2018-02-23T21:11:47.898Z,100776.84
2018-02-23T21:14:17.792Z,100775.02
2018-02-23T21:16:46.919Z,100775.50
2018-02-23T21:19:17.610Z,100772.07
2018-02-23T21:21:46.728Z,100784.39
2018-02-23T21:24:15.869Z,100781.11
2018-02-23T21:26:44.968Z,100778.53
2018-02-23T21:29:14.092Z,100780.38
2018-02-23T21:31:43.216Z,100779.69
2018-02-23T21:34:12.359Z,100785.63
2018-02-23T21:36:41.521Z,100789.55
2018-02-23T21:39:10.676Z,100789.48
2018-02-23T21:41:53.681Z,100790.37
2018-02-23T21:44:22.804Z,100797.22
2018-02-23T21:46:53.123Z,100794.61
2018-02-23T21:49:22.222Z,100797.61
2018-02-23T21:51:51.317Z,100804.53
2018-02-23T21:54:20.414Z,100802.07
2018-02-23T21:56:49.540Z,100801.86
2018-02-23T21:59:19.452Z,100806.40
2018-02-23T22:01:48.543Z,100807.52
2018-02-23T22:04:17.658Z,100810.86
2018-02-23T22:06:47.510Z,100810.25
2018-02-23T22:09:16.634Z,100803.91
2018-02-23T22:11:45.740Z,100813.42
2018-02-23T22:14:14.866Z,100812.41
2018-02-23T22:16:44.740Z,100808.14
2018-02-23T22:19:13.875Z,100814.33
2018-02-23T22:21:43.755Z,100809.19
2018-02-23T22:24:12.858Z,100812.16
2018-02-23T22:26:41.976Z,100808.12
2018-02-23T22:29:11.103Z,100809.25
2018-02-23T22:31:40.193Z,100809.87
2018-02-23T22:34:09.327Z,100809.51
2018-02-23T22:36:38.421Z,100814.97
2018-02-23T22:39:07.527Z,100819.66
2018-02-23T22:41:36.636Z,100816.77
2018-02-23T22:44:06.518Z,100803.39
2018-02-23T22:46:35.616Z,100809.25
2018-02-23T22:49:04.719Z,100803.94
2018-02-23T22:51:33.858Z,100812.27
2018-02-23T22:54:03.738Z,100808.22
2018-02-23T22:56:32.845Z,100799.56
2018-02-23T22:59:01.967Z,100805.61
2018-02-23T23:01:31.844Z,100806.23
2018-02-23T23:04:00.968Z,100807.98
2018-02-23T23:06:30.833Z,100817.02
2018-02-23T23:08:59.947Z,100817.02
2018-02-23T23:11:29.068Z,100818.72
2018-02-23T23:13:58.177Z,100826.51
2018-02-23T23:16:28.050Z,100825.12
2018-02-23T23:18:57.166Z,100825.98
2018-02-23T23:21:26.291Z,100814.42
2018-02-23T23:23:56.134Z,100810.55
2018-02-23T23:26:25.359Z,100819.52
2018-02-23T23:28:55.964Z,100806.84
2018-02-23T23:31:25.062Z,100813.18
2018-02-23T23:33:54.158Z,100811.27
2018-02-23T23:36:23.264Z,100806.16
2018-02-23T23:38:52.471Z,100806.30
2018-02-23T23:41:21.591Z,100805.55
2018-02-23T23:43:50.682Z,100806.84
2018-02-23T23:46:19.795Z,100811.93
2018-02-23T23:48:49.663Z,100814.77
2018-02-23T23:51:18.784Z,100822.79
2018-02-23T23:53:47.871Z,100818.03
2018-02-23T23:56:16.962Z,100823.19
2018-02-23T23:58:46.079Z,100819.41
